CRS2 weather

Parry Sound Medical Heliport
Parry Sound, Ontario, Canada

Public forecast

Using degrees Celsius for public forecast. Weather courtesy of forecast.io.

METAR (pilot weather report)

Closest report is Muskoka Airport, 37.4 nm (69.2 km) SE. Retrieved 2019/07/23 16:00 UTC (52 minutes ago):

CYQA 231600Z AUTO VRB08KT 9SM CLR 25/07 A2993 RMK SLP138 DENSITY ALT 2200FT

TAF (pilot weather forecast)

Closest forecast is Muskoka Airport, 37.4 nm (69.2 km) SE. Retrieved 2019/07/23 14:48 UTC (2 hours ago):

TAF CYQA 231338Z 2314/2402 VRB03KT P6SM SKC BECMG 2314/2316 30008KT FM231800 30008KT P6SM FEW050 SCT140 FM232100 30008KT P6SM BKN070 BKN120 RMK FCST BASED ON AUTO OBS. NXT FCST BY 232000Z